This is the latest recevied weather packets stored in our database for station/object N3DXC. If no packets are shown the sender has not sent any weather packets the latest 1 day(s).
| Time | Temp. | Humidity | Pressure | Rain* | Wind** | Luminosity | Snow |
|---|---|---|---|---|---|---|---|
| 1836274578 | 17.22° C | 77% | 1020.8 hPa | 0 mm | 1.34 m/s, 56° | - | - |
| 1836274516 | 17.22° C | 77% | 1020.7 hPa | 0 mm | 0.89 m/s, 45° | - | - |
| 1836274429 | 17.22° C | 76% | 1020.9 hPa | 0 mm | 2.68 m/s, 59° | - | - |
| 1836274187 | 17.22° C | 77% | 1020.9 hPa | 0 mm | 1.79 m/s, 71° | - | - |
| 1836274096 | 17.78° C | 77% | 1020.7 hPa | 0 mm | 0.45 m/s, 29° | - | - |
| 1836273977 | 17.78° C | 76% | 1020.7 hPa | 0 mm | 0 m/s | - | - |
| 1778036089 | 16.67° C | 58% | 1008.8 hPa | 0 mm | 2.24 m/s, 202° | - | - |
| 1778035789 | 16.67° C | 58% | 1008.9 hPa | 0 mm | 1.79 m/s, 205° | - | - |
| 1778035489 | 16.67° C | 58% | 1008.9 hPa | 0 mm | 1.79 m/s, 196° | - | - |
| 1778035189 | 17.22° C | 57% | 1008.9 hPa | 0 mm | 1.79 m/s, 194° | - | - |
| 1778034889 | 17.22° C | 56% | 1009 hPa | 0 mm | 1.34 m/s, 216° | - | - |
| 1778034589 | 17.22° C | 56% | 1009.1 hPa | 0 mm | 3.13 m/s, 237° | - | - |
| 1778034288 | 17.22° C | 56% | 1009.2 hPa | 0 mm | 2.24 m/s, 217° | - | - |
| 1778033990 | 17.22° C | 56% | 1009.1 hPa | 0 mm | 2.68 m/s, 225° | - | - |
| 1778033688 | 17.22° C | 56% | 1009.2 hPa | 0 mm | 1.79 m/s, 219° | - | - |
| 1778033389 | 17.22° C | 55% | 1009.2 hPa | 0 mm | 1.79 m/s, 229° | - | - |
| 1778033089 | 17.22° C | 55% | 1009.1 hPa | 0 mm | 1.79 m/s, 216° | - | - |
| 1778032789 | 17.78° C | 54% | 1009.1 hPa | 0 mm | 2.24 m/s, 198° | - | - |
| 1778032490 | 17.78° C | 53% | 1009.2 hPa | 0 mm | 2.68 m/s, 206° | - | - |
| 1778032189 | 17.78° C | 53% | 1009.2 hPa | 0 mm | 3.13 m/s, 222° | - | - |
| 1778031889 | 18.33° C | 53% | 1009.1 hPa | 0 mm | 2.24 m/s, 219° | - | - |
| 1778031589 | 18.33° C | 52% | 1009.1 hPa | 0 mm | 2.68 m/s, 234° | - | - |
| 1778031290 | 18.33° C | 52% | 1009.1 hPa | 0 mm | 2.68 m/s, 244° | - | - |
| 1778030989 | 18.33° C | 52% | 1009.1 hPa | 0 mm | 3.13 m/s, 244° | - | - |
| 1778030747 | 18.33° C | 53% | 1009 hPa | 0 mm | 3.13 m/s, 248° | - | - |
* Rain latest hour (hover to see other rain measurements)
** Current wind speed in m/s (hover to see current wind gust speed)